Time;durP1;ratioP1;P1;durP2;ratioP2;P2;SDS_P1;SDS_P2;PMS_P1;PMS_P2;Temp;Humidity;BMP_temperature;BMP_pressure;BME280_temperature;BME280_humidity;BME280_pressure;Samples;Min_cycle;Max_cycle;Signal;HPM_P1;HPM_P2
2021/01/17 00:00:42;;;;;;;15.07;11.73;;;;;;;-0.61;63.97;95702.19;5031737;28;20251;-75
2021/01/17 00:03:07;;;;;;;17.10;12.83;;;;;;;-0.61;63.74;95699.69;5043156;28;20197;-75
2021/01/17 00:05:33;;;;;;;17.67;12.90;;;;;;;-0.64;63.73;95707.47;5028816;28;20220;-75
2021/01/17 00:08:00;;;;;;;16.93;12.77;;;;;;;-0.63;64.11;95691.38;5029013;28;20217;-75
2021/01/17 00:10:28;;;;;;;18.03;13.33;;;;;;;-0.56;63.93;95693.38;5029557;28;20572;-75
2021/01/17 00:12:56;;;;;;;18.60;12.93;;;;;;;-0.59;63.89;95680.16;5028804;28;20232;-74
2021/01/17 00:15:22;;;;;;;16.97;12.40;;;;;;;-0.62;63.88;95680.34;5029350;28;20841;-74
2021/01/17 00:17:49;;;;;;;16.43;12.37;;;;;;;-0.58;63.80;95666.59;5028737;28;20225;-75
2021/01/17 00:20:17;;;;;;;16.20;12.13;;;;;;;-0.55;63.70;95668.88;5029220;28;20263;-74
2021/01/17 00:22:43;;;;;;;17.77;12.97;;;;;;;-0.55;64.11;95661.31;5028929;28;20190;-73
2021/01/17 00:25:15;;;;;;;17.47;12.80;;;;;;;-0.61;64.24;95656.69;5028821;28;20696;-73
2021/01/17 00:27:41;;;;;;;17.10;12.50;;;;;;;-0.62;63.82;95655.06;5028847;28;20774;-74
2021/01/17 00:30:09;;;;;;;17.70;13.10;;;;;;;-0.68;64.16;95640.31;5028716;28;20230;-74
2021/01/17 00:32:35;;;;;;;17.93;12.77;;;;;;;-0.64;64.16;95651.84;5028923;28;20197;-75
2021/01/17 00:35:01;;;;;;;17.57;13.27;;;;;;;-0.59;63.79;95648.09;5028552;28;20280;-73
2021/01/17 00:37:27;;;;;;;17.87;13.60;;;;;;;-0.67;63.99;95644.47;5028944;28;20217;-74
2021/01/17 00:39:53;;;;;;;16.60;12.50;;;;;;;-0.65;63.78;95638.41;5028765;28;20736;-74
2021/01/17 00:42:20;;;;;;;15.63;12.63;;;;;;;-0.55;63.95;95638.53;5028944;28;20225;-75
2021/01/17 00:44:46;;;;;;;16.27;12.63;;;;;;;-0.56;63.54;95642.00;5029340;28;20202;-75
2021/01/17 00:47:13;;;;;;;16.50;12.30;;;;;;;-0.55;63.92;95626.72;5028800;28;20225;-75
2021/01/17 00:49:40;;;;;;;16.33;12.30;;;;;;;-0.54;64.18;95627.53;5028768;28;20288;-75
2021/01/17 00:52:06;;;;;;;15.23;12.10;;;;;;;-0.48;64.06;95630.44;5028948;28;20198;-75
2021/01/17 00:54:32;;;;;;;16.67;12.77;;;;;;;-0.60;64.24;95627.97;5028590;28;20725;-75
2021/01/17 00:57:04;;;;;;;17.77;13.20;;;;;;;-0.57;64.09;95623.47;5028736;28;20194;-75
2021/01/17 00:59:30;;;;;;;17.10;13.33;;;;;;;-0.54;63.71;95623.28;5028824;28;20309;-76
2021/01/17 01:01:56;;;;;;;15.83;12.30;;;;;;;-0.59;63.82;95620.28;5028259;28;20206;-75
2021/01/17 01:04:22;;;;;;;15.50;12.07;;;;;;;-0.51;63.85;95614.66;5028624;28;20213;-73
2021/01/17 01:06:51;;;;;;;15.53;11.80;;;;;;;-0.48;63.62;95612.72;5028631;28;20202;-74
2021/01/17 01:09:17;;;;;;;13.50;11.53;;;;;;;-0.48;63.09;95609.41;5028771;28;20214;-75
2021/01/17 01:11:43;;;;;;;15.23;11.07;;;;;;;-0.47;63.34;95599.19;5028489;28;20205;-74
2021/01/17 01:14:09;;;;;;;15.67;11.57;;;;;;;-0.45;63.30;95604.13;5031577;28;20202;-75
2021/01/17 01:16:36;;;;;;;16.33;12.17;;;;;;;-0.44;62.98;95595.63;5032141;28;20197;-73
2021/01/17 01:19:03;;;;;;;15.60;10.50;;;;;;;-0.40;62.79;95597.03;5032757;28;20364;-73
2021/01/17 01:21:30;;;;;;;14.27;11.07;;;;;;;-0.44;62.85;95588.84;5032278;28;20194;-74
2021/01/17 01:23:57;;;;;;;12.90;10.13;;;;;;;-0.50;62.76;95588.47;5032226;28;20208;-75
2021/01/17 01:26:23;;;;;;;13.07;10.63;;;;;;;-0.50;62.45;95586.75;5032248;28;20249;-75
2021/01/17 01:28:50;;;;;;;13.43;10.30;;;;;;;-0.46;63.02;95580.56;5031993;28;20226;-76
2021/01/17 01:31:18;;;;;;;13.73;10.77;;;;;;;-0.43;62.87;95582.06;5031607;28;20205;-75
2021/01/17 01:33:45;;;;;;;13.07;10.70;;;;;;;-0.43;62.43;95577.81;5031860;28;20198;-74
2021/01/17 01:36:18;;;;;;;12.63;9.90;;;;;;;-0.43;62.56;95571.94;5031464;28;20186;-73
2021/01/17 01:38:44;;;;;;;14.27;11.43;;;;;;;-0.41;62.56;95568.41;5032108;28;20322;-74
2021/01/17 01:41:10;;;;;;;14.17;10.93;;;;;;;-0.39;62.95;95570.81;5031356;28;20533;-74
2021/01/17 01:43:36;;;;;;;12.47;10.27;;;;;;;-0.35;62.90;95567.13;5032066;28;20202;-75
2021/01/17 01:46:02;;;;;;;14.70;10.93;;;;;;;-0.35;62.55;95557.00;5031326;28;20206;-75
2021/01/17 01:48:32;;;;;;;14.60;10.90;;;;;;;-0.32;62.45;95554.28;5031748;28;20233;-75
2021/01/17 01:51:01;;;;;;;15.53;11.70;;;;;;;-0.36;62.47;95558.75;5031602;28;20584;-74
2021/01/17 01:53:28;;;;;;;13.17;10.40;;;;;;;-0.41;62.77;95547.38;5031907;28;20256;-75
2021/01/17 01:55:54;;;;;;;12.47;11.07;;;;;;;-0.44;63.01;95545.84;5031386;28;20206;-73
2021/01/17 01:58:22;;;;;;;14.97;11.33;;;;;;;-0.44;63.29;95545.06;5031400;28;20227;-74
2021/01/17 02:00:49;;;;;;;15.50;11.33;;;;;;;-0.43;63.46;95542.41;5032635;28;20190;-73
2021/01/17 02:03:15;;;;;;;14.77;11.77;;;;;;;-0.43;63.42;95539.06;5031619;28;20248;-74
2021/01/17 02:05:41;;;;;;;14.53;11.20;;;;;;;-0.50;64.37;95535.38;5030866;28;20198;-75
2021/01/17 02:08:36;;;;;;;15.10;11.53;;;;;;;-0.70;64.83;95519.09;5031307;28;20680;-75
2021/01/17 02:11:14;;;;;;;13.20;10.87;;;;;;;-0.75;65.25;95524.47;5003894;28;20202;-75
2021/01/17 02:13:43;;;;;;;15.77;11.57;;;;;;;-0.71;65.35;95522.53;5031287;28;20186;-75
2021/01/17 02:16:09;;;;;;;14.10;11.30;;;;;;;-0.77;65.47;95516.19;5030992;28;20198;-73
2021/01/17 02:18:39;;;;;;;16.10;11.67;;;;;;;-0.76;65.83;95524.56;5031326;28;20226;-75
2021/01/17 02:21:07;;;;;;;14.03;10.73;;;;;;;-0.71;65.31;95504.84;5031135;28;20198;-75
2021/01/17 02:23:39;;;;;;;15.33;10.67;;;;;;;-0.67;65.80;95505.44;5031157;28;20960;-75
2021/01/17 02:26:06;;;;;;;14.63;11.20;;;;;;;-0.64;65.85;95506.03;5030116;28;20198;-75
2021/01/17 02:28:32;;;;;;;13.07;10.60;;;;;;;-0.60;65.70;95494.78;5030745;28;20710;-73
2021/01/17 02:31:00;;;;;;;15.93;11.83;;;;;;;-0.57;65.43;95491.19;5030653;28;20194;-74
2021/01/17 02:33:29;;;;;;;13.43;11.13;;;;;;;-0.59;65.80;95480.41;5030912;28;20212;-75
2021/01/17 02:36:01;;;;;;;13.93;11.10;;;;;;;-0.57;65.89;95481.91;5030251;28;20860;-74
2021/01/17 02:38:43;;;;;;;16.70;11.40;;;;;;;-0.65;66.27;95476.59;5030743;28;20245;-75
2021/01/17 02:41:16;;;;;;;13.73;10.37;;;;;;;-0.70;66.24;95471.06;5030519;28;20194;-75
2021/01/17 02:43:43;;;;;;;13.80;10.90;;;;;;;-0.74;66.65;95473.00;5030520;28;20205;-75
2021/01/17 02:46:09;;;;;;;13.43;10.97;;;;;;;-0.79;67.27;95459.13;5030150;28;20662;-74
2021/01/17 02:48:36;;;;;;;12.90;10.67;;;;;;;-0.80;66.68;95460.03;5030833;28;20226;-74
2021/01/17 02:51:02;;;;;;;14.07;11.17;;;;;;;-0.77;67.29;95458.06;5030185;28;20199;-76
2021/01/17 02:53:32;;;;;;;15.23;11.23;;;;;;;-0.72;67.42;95462.78;5030669;28;20264;-75
2021/01/17 02:56:00;;;;;;;14.10;11.17;;;;;;;-0.69;67.95;95460.03;5029766;28;20210;-75
2021/01/17 02:58:27;;;;;;;12.33;10.70;;;;;;;-0.64;67.88;95454.66;5030706;28;20340;-74
2021/01/17 03:00:56;;;;;;;14.93;10.87;;;;;;;-0.55;67.50;95448.91;5029568;28;20202;-73
2021/01/17 03:03:25;;;;;;;12.93;10.40;;;;;;;-0.51;67.40;95446.06;5030562;28;20241;-75
2021/01/17 03:05:52;;;;;;;13.43;10.73;;;;;;;-0.45;67.31;95449.88;5029744;28;20576;-75
2021/01/17 03:08:18;;;;;;;13.53;10.90;;;;;;;-0.38;66.70;95456.06;5029911;28;20247;-74
2021/01/17 03:10:45;;;;;;;13.20;10.67;;;;;;;-0.39;67.15;95450.25;5029822;28;20198;-73
2021/01/17 03:13:11;;;;;;;13.57;10.57;;;;;;;-0.44;67.16;95449.75;5029911;28;20194;-75
2021/01/17 03:15:41;;;;;;;12.23;10.20;;;;;;;-0.57;67.59;95445.69;5029974;28;20581;-75
2021/01/17 03:18:07;;;;;;;13.17;10.53;;;;;;;-0.58;68.49;95436.53;5030056;28;20250;-75
2021/01/17 03:20:33;;;;;;;12.73;10.40;;;;;;;-0.58;68.27;95436.53;5030274;28;20741;-75
2021/01/17 03:22:59;;;;;;;13.33;10.60;;;;;;;-0.59;68.88;95428.13;5030095;28;20618;-74
2021/01/17 03:25:25;;;;;;;13.40;10.87;;;;;;;-0.60;69.28;95430.78;5029590;28;20198;-74
2021/01/17 03:27:51;;;;;;;13.47;10.83;;;;;;;-0.56;69.76;95427.88;5029585;28;20222;-75
2021/01/17 03:30:17;;;;;;;12.87;10.17;;;;;;;-0.54;69.73;95428.59;5029459;28;20689;-75
2021/01/17 03:32:44;;;;;;;15.13;10.63;;;;;;;-0.66;70.68;95429.50;5029985;28;20190;-75
2021/01/17 03:35:10;;;;;;;12.37;10.27;;;;;;;-0.66;70.67;95429.50;5029424;28;20583;-74
2021/01/17 03:37:36;;;;;;;13.13;10.47;;;;;;;-0.71;70.78;95422.25;5028970;28;20654;-75
2021/01/17 03:40:03;;;;;;;13.10;10.27;;;;;;;-0.67;70.90;95432.94;5029268;28;20320;-75
2021/01/17 03:42:29;;;;;;;13.13;10.17;;;;;;;-0.65;71.27;95428.56;5029467;28;20292;-73
2021/01/17 03:44:55;;;;;;;14.33;11.13;;;;;;;-0.71;71.73;95432.34;5029781;28;20677;-75
2021/01/17 03:47:21;;;;;;;12.87;10.07;;;;;;;-0.76;72.20;95433.59;5029036;28;20225;-75
2021/01/17 03:49:48;;;;;;;13.57;10.33;;;;;;;-0.75;71.97;95430.97;5029685;28;20272;-75
2021/01/17 03:52:14;;;;;;;12.77;10.43;;;;;;;-0.69;71.52;95432.25;5029326;28;20202;-75
2021/01/17 03:54:40;;;;;;;13.50;10.33;;;;;;;-0.57;71.16;95428.00;5029231;28;20225;-75
2021/01/17 03:57:06;;;;;;;12.90;10.10;;;;;;;-0.63;71.49;95428.47;5028987;28;20210;-75
2021/01/17 03:59:32;;;;;;;11.73;9.30;;;;;;;-0.59;71.60;95432.38;5028842;28;20959;-75
2021/01/17 04:01:57;;;;;;;13.50;10.83;;;;;;;-0.59;71.09;95429.84;5034970;28;20221;-74
2021/01/17 04:04:23;;;;;;;13.13;9.93;;;;;;;-0.62;71.44;95427.56;5028972;28;20206;-75
2021/01/17 04:06:50;;;;;;;12.20;9.00;;;;;;;-0.62;71.15;95435.94;5029365;28;20271;-75
2021/01/17 04:09:16;;;;;;;11.70;9.53;;;;;;;-0.57;71.10;95433.06;5028393;28;20227;-75
2021/01/17 04:11:42;;;;;;;12.40;9.73;;;;;;;-0.60;71.22;95436.63;5029101;28;20733;-75
2021/01/17 04:14:10;;;;;;;11.23;9.03;;;;;;;-0.59;71.33;95434.91;5028766;28;20289;-75
2021/01/17 04:16:36;;;;;;;14.27;10.00;;;;;;;-0.61;71.25;95436.75;5029240;28;20267;-74
2021/01/17 04:19:02;;;;;;;11.87;9.43;;;;;;;-0.65;71.36;95436.16;5028991;28;20210;-75
2021/01/17 04:21:28;;;;;;;12.30;10.03;;;;;;;-0.73;72.11;95441.75;5029046;28;20202;-73
2021/01/17 04:23:55;;;;;;;10.20;8.57;;;;;;;-0.72;72.16;95435.78;5028778;28;20248;-74
2021/01/17 04:26:21;;;;;;;11.87;8.87;;;;;;;-0.70;72.38;95428.91;5029208;28;20229;-75
2021/01/17 04:28:46;;;;;;;11.33;8.90;;;;;;;-0.60;71.37;95428.25;5028723;28;20218;-75
2021/01/17 04:31:13;;;;;;;11.23;8.53;;;;;;;-0.60;72.41;95431.59;5028889;28;20229;-74
2021/01/17 04:33:38;;;;;;;11.10;9.17;;;;;;;-0.55;72.08;95426.97;5028594;28;20206;-74
2021/01/17 04:36:07;;;;;;;10.30;7.87;;;;;;;-0.51;72.13;95425.84;5028916;28;20206;-75
2021/01/17 04:38:33;;;;;;;11.13;8.33;;;;;;;-0.52;71.93;95419.16;5028468;28;20214;-75
2021/01/17 04:41:02;;;;;;;9.60;8.13;;;;;;;-0.54;72.25;95422.72;5028457;28;20190;-75
2021/01/17 04:43:31;;;;;;;9.70;8.03;;;;;;;-0.51;72.56;95419.97;5028856;28;20215;-75
2021/01/17 04:45:59;;;;;;;10.53;8.07;;;;;;;-0.50;72.81;95424.91;5028461;28;20209;-75
2021/01/17 04:48:26;;;;;;;9.47;7.60;;;;;;;-0.49;72.38;95424.00;5030090;28;20225;-75
2021/01/17 04:50:57;;;;;;;9.97;8.43;;;;;;;-0.62;73.05;95419.97;5032766;28;20198;-75
2021/01/17 04:53:24;;;;;;;10.47;7.97;;;;;;;-0.59;73.24;95422.28;5032839;28;20670;-74
2021/01/17 04:55:51;;;;;;;8.40;7.43;;;;;;;-0.61;73.75;95422.38;5032419;28;20194;-75
2021/01/17 04:58:19;;;;;;;9.47;7.83;;;;;;;-0.57;73.45;95416.16;5032743;28;20221;-75
2021/01/17 05:00:55;;;;;;;9.80;7.77;;;;;;;-0.63;73.75;95416.63;5035400;28;20193;-75
2021/01/17 05:03:35;;;;;;;10.30;7.83;;;;;;;-0.64;73.78;95412.50;5052470;28;20343;-75
2021/01/17 05:06:16;;;;;;;8.83;7.10;;;;;;;-0.62;73.52;95418.25;5038052;28;20205;-75
2021/01/17 05:08:44;;;;;;;9.40;7.27;;;;;;;-0.55;73.86;95414.31;5032180;28;20230;-76
2021/01/17 05:11:32;;;;;;;8.97;7.33;;;;;;;-0.44;73.48;95411.03;5032163;28;20213;-74
2021/01/17 05:14:09;;;;;;;9.13;7.20;;;;;;;-0.47;73.41;95409.53;5032173;28;20277;-75
2021/01/17 05:16:39;;;;;;;10.33;7.83;;;;;;;-0.46;73.59;95416.19;5032413;28;20201;-75
2021/01/17 05:19:05;;;;;;;8.40;6.70;;;;;;;-0.45;73.64;95412.75;5032147;28;20246;-74
2021/01/17 05:21:33;;;;;;;7.53;6.47;;;;;;;-0.48;74.16;95405.38;5032463;28;20201;-75
2021/01/17 05:24:00;;;;;;;7.43;6.33;;;;;;;-0.44;73.55;95408.50;5032230;28;20210;-75
2021/01/17 05:26:26;;;;;;;8.20;6.37;;;;;;;-0.40;73.98;95414.94;5031898;28;20194;-75
2021/01/17 05:28:52;;;;;;;8.33;5.80;;;;;;;-0.41;74.35;95415.84;5031867;28;20253;-75
2021/01/17 05:31:23;;;;;;;7.03;5.90;;;;;;;-0.37;73.97;95412.16;5031778;28;20678;-76
2021/01/17 05:33:50;;;;;;;7.70;5.93;;;;;;;-0.35;74.42;95416.19;5032166;28;20198;-75
2021/01/17 05:36:16;;;;;;;8.43;6.03;;;;;;;-0.36;74.42;95414.56;5032228;28;20198;-75
2021/01/17 05:38:42;;;;;;;6.60;5.87;;;;;;;-0.32;74.47;95414.34;5031719;28;20226;-76
2021/01/17 05:41:23;;;;;;;7.47;5.70;;;;;;;-0.34;74.53;95411.94;5031620;28;20217;-74
2021/01/17 05:43:49;;;;;;;6.17;5.10;;;;;;;-0.36;74.84;95418.81;5031677;28;20202;-75
2021/01/17 05:46:15;;;;;;;7.33;5.60;;;;;;;-0.45;75.59;95417.00;5031769;28;20272;-73
2021/01/17 05:48:42;;;;;;;7.03;5.33;;;;;;;-0.36;75.23;95423.88;5031396;28;20242;-74
2021/01/17 05:51:08;;;;;;;6.73;5.43;;;;;;;-0.33;74.94;95417.81;5031383;28;20677;-75
2021/01/17 05:53:34;;;;;;;6.30;5.13;;;;;;;-0.33;74.92;95426.19;5031674;28;20202;-75
2021/01/17 05:56:15;;;;;;;6.63;5.23;;;;;;;-0.28;75.08;95421.59;5030917;28;20604;-75
2021/01/17 05:58:43;;;;;;;5.80;4.87;;;;;;;-0.28;74.87;95425.84;5031139;28;20264;-75
2021/01/17 06:01:16;;;;;;;5.47;4.73;;;;;;;-0.29;74.88;95427.59;5036440;28;20201;-75
2021/01/17 06:03:50;;;;;;;5.93;5.20;;;;;;;-0.28;75.33;95428.38;5011558;28;20206;-75
2021/01/17 06:06:26;;;;;;;5.20;4.63;;;;;;;-0.26;75.30;95434.13;5012205;28;20206;-74
2021/01/17 06:08:53;;;;;;;5.63;4.90;;;;;;;-0.24;74.74;95425.53;5031253;28;20312;-75
2021/01/17 06:11:21;;;;;;;5.57;4.87;;;;;;;-0.26;75.26;95432.41;5030727;28;20232;-73
2021/01/17 06:13:53;;;;;;;7.03;4.97;;;;;;;-0.26;75.39;95429.09;5030577;28;20289;-75
2021/01/17 06:16:24;;;;;;;6.73;5.13;;;;;;;-0.26;75.47;95439.19;5031241;28;20678;-74
2021/01/17 06:18:56;;;;;;;6.40;5.00;;;;;;;-0.22;75.81;95441.41;5030960;28;20277;-74
2021/01/17 06:21:24;;;;;;;9.10;7.60;;;;;;;-0.19;76.25;95436.06;5031214;28;20252;-75
2021/01/17 06:23:55;;;;;;;24.20;16.87;;;;;;;-0.14;75.60;95433.22;5030428;28;20709;-75
2021/01/17 06:26:25;;;;;;;12.87;9.17;;;;;;;-0.12;75.33;95437.25;5031084;28;20248;-75
2021/01/17 06:28:51;;;;;;;8.60;6.03;;;;;;;-0.11;76.32;95441.38;5030817;28;20830;-76
2021/01/17 06:31:22;;;;;;;6.40;4.97;;;;;;;-0.07;75.94;95439.44;5030717;28;20205;-75
2021/01/17 06:33:49;;;;;;;5.77;4.70;;;;;;;-0.09;76.37;95438.75;5030705;28;20290;-74
2021/01/17 06:36:17;;;;;;;5.97;4.90;;;;;;;-0.11;76.15;95441.38;5030783;28;20284;-75
2021/01/17 06:38:44;;;;;;;5.70;4.67;;;;;;;-0.11;76.50;95441.38;5030640;28;20223;-76
2021/01/17 06:41:13;;;;;;;5.60;4.67;;;;;;;-0.15;76.56;95439.19;5030317;28;20658;-74
2021/01/17 06:43:42;;;;;;;5.00;4.50;;;;;;;-0.12;76.45;95438.97;5030294;28;20198;-73
2021/01/17 06:46:08;;;;;;;5.37;4.07;;;;;;;-0.11;75.95;95438.84;5030078;28;20203;-74
2021/01/17 06:48:34;;;;;;;5.77;4.53;;;;;;;-0.05;76.37;95437.59;5030549;28;20229;-76
2021/01/17 06:51:17;;;;;;;5.77;4.47;;;;;;;0.00;75.98;95438.06;5030300;28;20248;-76
2021/01/17 06:53:51;;;;;;;5.80;4.50;;;;;;;0.01;76.07;95434.59;5030439;28;20229;-74
2021/01/17 06:56:19;;;;;;;4.87;4.17;;;;;;;0.05;76.17;95433.44;5030097;28;20194;-76
2021/01/17 06:58:45;;;;;;;5.33;4.40;;;;;;;0.02;76.08;95431.13;5030334;28;20218;-74
2021/01/17 07:01:14;;;;;;;6.80;4.50;;;;;;;0.08;76.04;95442.53;5023867;28;20194;-74
2021/01/17 07:03:52;;;;;;;5.00;4.47;;;;;;;0.11;75.99;95440.56;5049927;28;20682;-74
2021/01/17 07:06:29;;;;;;;6.10;4.10;;;;;;;0.14;75.97;95440.34;5029354;28;20209;-75
2021/01/17 07:09:01;;;;;;;5.10;4.17;;;;;;;0.10;75.84;95448.28;5029694;28;20648;-75
2021/01/17 07:11:52;;;;;;;3.97;3.57;;;;;;;0.15;75.75;95451.28;5029933;28;20252;-76
2021/01/17 07:14:26;;;;;;;4.57;3.80;;;;;;;0.12;76.18;95449.78;5029615;28;20621;-75
2021/01/17 07:16:56;;;;;;;4.80;4.10;;;;;;;0.10;76.08;95455.88;5030105;28;20213;-76
2021/01/17 07:19:30;;;;;;;4.97;3.70;;;;;;;0.08;76.46;95445.88;5027113;28;20301;-76
2021/01/17 07:22:03;;;;;;;4.07;3.43;;;;;;;0.12;76.51;95452.31;5027531;28;20631;-75
2021/01/17 07:24:31;;;;;;;4.00;3.60;;;;;;;0.14;76.39;95445.41;5029156;28;20717;-75
2021/01/17 07:27:19;;;;;;;4.90;4.00;;;;;;;0.11;76.69;95460.03;5015389;28;20198;-76
2021/01/17 07:29:51;;;;;;;4.17;3.77;;;;;;;0.11;77.13;95453.22;5014086;28;20230;-76
2021/01/17 07:32:31;;;;;;;4.47;3.60;;;;;;;0.10;77.70;95459.22;5029043;28;20212;-75
2021/01/17 07:35:06;;;;;;;4.63;4.13;;;;;;;0.19;77.42;95458.50;5028473;28;20756;-74
2021/01/17 07:37:33;;;;;;;4.83;4.03;;;;;;;0.24;76.94;95458.97;5029067;28;20625;-74
2021/01/17 07:40:07;;;;;;;5.90;4.40;;;;;;;0.28;77.36;95457.00;5024541;28;20339;-76
2021/01/17 07:42:34;;;;;;;8.03;6.17;;;;;;;0.34;76.92;95452.28;5013267;28;20845;-75
2021/01/17 07:45:12;;;;;;;6.33;5.00;;;;;;;0.41;76.71;95459.41;5028811;28;20340;-74
2021/01/17 07:47:42;;;;;;;5.33;4.30;;;;;;;0.47;76.92;95461.47;5028472;28;20727;-75
2021/01/17 07:50:10;;;;;;;4.90;3.83;;;;;;;0.51;76.02;95462.84;5028636;28;20222;-75
2021/01/17 07:52:43;;;;;;;4.30;3.87;;;;;;;0.56;76.59;95468.38;5028134;28;20260;-76
2021/01/17 07:55:12;;;;;;;5.37;4.10;;;;;;;0.60;77.25;95469.72;5027919;28;20220;-75
2021/01/17 07:57:38;;;;;;;5.30;4.47;;;;;;;0.66;76.45;95467.53;5019522;28;20289;-75
2021/01/17 08:00:06;;;;;;;5.40;4.07;;;;;;;0.67;75.95;95460.75;5028873;28;20218;-75
2021/01/17 08:02:33;;;;;;;5.63;4.17;;;;;;;0.71;75.68;95464.66;5027546;28;20243;-75
2021/01/17 08:05:01;;;;;;;5.93;4.37;;;;;;;0.73;76.16;95470.41;5028140;28;20688;-75
2021/01/17 08:07:31;;;;;;;4.87;3.50;;;;;;;0.77;76.28;95466.69;5027375;28;20198;-75
2021/01/17 08:09:58;;;;;;;4.43;3.90;;;;;;;0.83;76.21;95467.94;5025323;28;20237;-75
2021/01/17 08:12:50;;;;;;;4.77;4.13;;;;;;;0.87;75.87;95470.13;5027371;28;20209;-74
2021/01/17 08:15:22;;;;;;;5.57;4.30;;;;;;;0.94;76.11;95468.72;5008760;28;20202;-75
2021/01/17 08:17:56;;;;;;;4.60;4.10;;;;;;;1.02;75.42;95470.66;5028715;28;20194;-75
2021/01/17 08:20:32;;;;;;;4.23;3.73;;;;;;;1.07;75.63;95468.56;5029646;28;20237;-76
2021/01/17 08:23:12;;;;;;;4.53;3.93;;;;;;;1.08;75.50;95477.78;5015961;28;20768;-77
2021/01/17 08:26:01;;;;;;;5.07;4.33;;;;;;;1.09;75.29;95466.72;5026669;28;20244;-77
2021/01/17 08:28:39;;;;;;;5.50;4.63;;;;;;;1.12;74.78;95463.13;5022776;28;20693;-77
2021/01/17 08:31:37;;;;;;;4.90;3.87;;;;;;;1.22;74.58;95466.53;5008152;28;20623;-78
2021/01/17 08:34:08;;;;;;;5.63;4.90;;;;;;;1.26;74.66;95468.69;5026917;28;20712;-77
2021/01/17 08:36:34;;;;;;;4.63;3.90;;;;;;;1.30;74.33;95474.34;5026968;28;20263;-77
2021/01/17 08:39:00;;;;;;;4.83;4.37;;;;;;;1.32;74.49;95480.09;5027023;28;20676;-76
2021/01/17 08:41:27;;;;;;;5.73;4.57;;;;;;;1.34;74.52;95480.78;5026779;28;20206;-77
2021/01/17 08:43:55;;;;;;;5.97;4.73;;;;;;;1.32;74.53;95478.38;5018193;28;20248;-78
2021/01/17 08:46:33;;;;;;;5.63;4.70;;;;;;;1.36;74.52;95497.47;5027472;28;20206;-77
2021/01/17 08:48:59;;;;;;;5.93;4.83;;;;;;;1.38;74.76;95490.53;5007620;28;20306;-76
2021/01/17 08:51:26;;;;;;;7.57;5.17;;;;;;;1.35;75.68;95495.03;5007363;28;20195;-75
2021/01/17 08:53:52;;;;;;;5.30;4.53;;;;;;;1.40;75.72;95500.56;5025376;28;20575;-75
2021/01/17 08:56:21;;;;;;;5.87;4.80;;;;;;;1.43;75.71;95502.06;5025803;28;20206;-77
2021/01/17 08:58:49;;;;;;;6.00;5.00;;;;;;;1.48;75.44;95505.03;5026573;28;20726;-76
2021/01/17 09:01:16;;;;;;;5.50;4.83;;;;;;;1.53;75.52;95505.47;5027083;28;20190;-76
2021/01/17 09:04:06;;;;;;;16.53;12.50;;;;;;;1.48;75.46;95516.00;5027344;28;20267;-76
2021/01/17 09:06:33;;;;;;;8.83;7.47;;;;;;;1.43;76.41;95519.81;5023270;28;20198;-77
2021/01/17 09:09:08;;;;;;;9.13;7.67;;;;;;;1.51;75.73;95514.94;5027064;28;20315;-77
2021/01/17 09:11:39;;;;;;;9.40;7.80;;;;;;;1.52;75.11;95514.81;5027524;28;20197;-78
2021/01/17 09:14:18;;;;;;;8.90;7.27;;;;;;;1.51;74.39;95517.47;5027751;28;20202;-77
2021/01/17 09:16:50;;;;;;;10.67;8.50;;;;;;;1.48;74.70;95523.59;5009562;28;20206;-76
2021/01/17 09:19:17;;;;;;;11.70;9.23;;;;;;;1.50;74.35;95531.09;5027184;28;20233;-75
2021/01/17 09:21:43;;;;;;;11.17;9.30;;;;;;;1.50;74.60;95531.91;5026467;28;20206;-76
2021/01/17 09:24:12;;;;;;;11.87;8.97;;;;;;;1.52;74.27;95534.31;5026180;28;20839;-75
2021/01/17 09:26:40;;;;;;;12.03;9.57;;;;;;;1.48;73.67;95538.81;5027512;28;20222;-78
2021/01/17 09:29:06;;;;;;;12.77;10.13;;;;;;;1.42;75.07;95534.22;5028128;28;20309;-76
2021/01/17 09:31:35;;;;;;;13.17;9.80;;;;;;;1.36;75.18;95540.56;5027870;28;20348;-77
2021/01/17 09:34:01;;;;;;;11.53;9.37;;;;;;;1.28;75.49;95540.41;5027465;28;20252;-77
2021/01/17 09:36:26;;;;;;;12.87;9.67;;;;;;;1.36;74.98;95542.31;5030536;28;20202;-77
2021/01/17 09:38:52;;;;;;;14.33;11.17;;;;;;;1.32;75.46;95546.03;5030752;28;20240;-74
2021/01/17 09:41:23;;;;;;;14.37;10.77;;;;;;;1.34;75.39;95546.72;5031532;28;20647;-76
2021/01/17 09:43:51;;;;;;;14.13;11.27;;;;;;;1.28;75.57;95548.00;5031321;28;20626;-77
2021/01/17 09:46:21;;;;;;;13.77;10.87;;;;;;;1.32;74.76;95558.72;5032028;28;20277;-76
2021/01/17 09:48:58;;;;;;;15.07;11.53;;;;;;;1.42;74.33;95561.31;5028789;28;20288;-78
2021/01/17 09:51:28;;;;;;;14.43;11.23;;;;;;;1.49;74.14;95567.53;5023750;28;20198;-78
2021/01/17 09:53:55;;;;;;;29.63;22.20;;;;;;;1.61;74.18;95564.00;5026673;28;20209;-77
2021/01/17 09:56:22;;;;;;;21.73;15.37;;;;;;;1.68;73.92;95563.41;5031700;28;20268;-77
2021/01/17 09:58:48;;;;;;;17.83;13.37;;;;;;;1.69;73.75;95569.28;5031711;28;20705;-76
2021/01/17 10:01:18;;;;;;;13.13;10.73;;;;;;;1.70;73.51;95564.09;5031539;28;20205;-76
2021/01/17 10:03:46;;;;;;;14.77;11.80;;;;;;;1.68;73.21;95565.94;5029967;28;20206;-76
2021/01/17 10:06:13;;;;;;;15.23;11.53;;;;;;;1.67;73.31;95569.41;5031380;28;20202;-77
2021/01/17 10:08:39;;;;;;;14.60;12.20;;;;;;;1.64;73.79;95577.25;5030518;28;20232;-76
2021/01/17 10:11:05;;;;;;;15.17;12.23;;;;;;;1.69;73.10;95581.97;5029500;28;20279;-75
2021/01/17 10:13:32;;;;;;;13.57;11.13;;;;;;;1.66;73.09;95579.69;5031167;28;20197;-76
2021/01/17 10:15:58;;;;;;;15.97;12.33;;;;;;;1.70;73.02;95581.84;5031363;28;20198;-76
2021/01/17 10:18:24;;;;;;;15.87;12.50;;;;;;;1.68;73.03;95585.44;5031497;28;20214;-78
2021/01/17 10:20:53;;;;;;;38.80;26.77;;;;;;;1.62;72.72;95586.72;5030487;28;20194;-77
2021/01/17 10:23:28;;;;;;;32.40;24.30;;;;;;;1.69;72.71;95584.50;5031654;28;20199;-81
2021/01/17 10:25:53;;;;;;;19.77;14.70;;;;;;;1.69;73.10;95585.31;5031034;28;20201;-78
2021/01/17 10:28:19;;;;;;;15.87;11.80;;;;;;;1.72;72.81;95591.88;5030894;28;20257;-76
2021/01/17 10:30:45;;;;;;;15.20;12.50;;;;;;;1.80;72.66;95586.19;5031891;28;20272;-77
2021/01/17 10:33:13;;;;;;;17.30;12.67;;;;;;;1.84;72.56;95590.91;5030483;28;20198;-77
2021/01/17 10:35:42;;;;;;;14.73;11.77;;;;;;;1.86;72.35;95583.16;5030918;28;20268;-77
2021/01/17 10:38:09;;;;;;;17.10;12.87;;;;;;;1.80;72.90;95573.50;5030787;28;20197;-77
2021/01/17 10:40:37;;;;;;;17.47;12.80;;;;;;;1.83;72.56;95584.22;5030863;28;20256;-77
2021/01/17 10:43:06;;;;;;;17.03;12.37;;;;;;;1.81;72.54;95577.63;5030272;28;20213;-77
2021/01/17 10:45:34;;;;;;;17.67;13.10;;;;;;;1.84;72.49;95582.47;5030532;28;20204;-77
2021/01/17 10:48:06;;;;;;;16.30;12.87;;;;;;;1.86;72.76;95581.44;5030560;28;20218;-77
2021/01/17 10:50:41;;;;;;;16.30;13.67;;;;;;;1.79;73.47;95592.19;5031102;28;20757;-75
2021/01/17 10:53:13;;;;;;;19.27;13.67;;;;;;;1.78;73.22;95588.03;5030324;28;20202;-75
2021/01/17 10:55:44;;;;;;;17.47;13.67;;;;;;;1.73;73.56;95583.34;5030346;28;20194;-75
2021/01/17 10:58:17;;;;;;;20.60;13.70;;;;;;;1.67;73.98;95586.38;5030562;28;20603;-76
2021/01/17 11:00:50;;;;;;;18.90;14.40;;;;;;;1.72;73.53;95579.19;5030474;28;20195;-75
2021/01/17 11:03:27;;;;;;;18.20;14.43;;;;;;;1.76;73.82;95574.66;5029901;28;20209;-77
2021/01/17 11:06:04;;;;;;;18.23;14.50;;;;;;;1.85;73.07;95572.19;5029414;28;20198;-77
2021/01/17 11:08:33;;;;;;;19.30;14.63;;;;;;;1.90;72.96;95575.19;5029535;28;20233;-77
2021/01/17 11:11:00;;;;;;;16.70;13.43;;;;;;;1.93;73.00;95572.38;5028892;28;20206;-76
2021/01/17 11:13:26;;;;;;;20.73;14.43;;;;;;;1.92;73.24;95573.31;5029899;28;20199;-76
2021/01/17 11:15:52;;;;;;;18.57;14.53;;;;;;;1.95;72.49;95572.25;5030116;28;20618;-76
2021/01/17 11:18:21;;;;;;;19.70;14.37;;;;;;;2.08;72.16;95575.44;5029298;28;20217;-76
2021/01/17 11:21:08;;;;;;;18.87;15.13;;;;;;;2.19;72.00;95569.47;5029914;28;20198;-77
2021/01/17 11:23:34;;;;;;;21.07;15.07;;;;;;;2.15;71.69;95570.63;5032143;28;20217;-77
2021/01/17 11:26:04;;;;;;;19.97;15.23;;;;;;;2.21;72.75;95575.22;5030069;28;20996;-77
2021/01/17 11:28:31;;;;;;;17.20;14.00;;;;;;;2.27;72.00;95569.66;5029283;28;20221;-77
2021/01/17 11:31:11;;;;;;;17.87;13.97;;;;;;;2.35;71.28;95568.06;5029524;28;20209;-77
2021/01/17 11:33:37;;;;;;;17.93;14.57;;;;;;;2.40;71.15;95565.97;5029687;28;20607;-76
2021/01/17 11:36:03;;;;;;;18.27;14.00;;;;;;;2.39;70.21;95573.72;5029489;28;20260;-77